Time;durP1;ratioP1;P1;durP2;ratioP2;P2;SDS_P1;SDS_P2;PMS_P1;PMS_P2;Temp;Humidity;BMP_temperature;BMP_pressure;BME280_temperature;BME280_humidity;BME280_pressure;Samples;Min_cycle;Max_cycle;Signal;HPM_P1;HPM_P2
2022/12/12 00:00:34;;;;;;;8.82;5.18;;;0.20;99.90;;;;;;4967368;28;20642;-61
2022/12/12 00:03:00;;;;;;;11.85;5.50;;;0.20;99.90;;;;;;4966425;28;20074;-63
2022/12/12 00:05:27;;;;;;;12.85;6.00;;;0.20;99.90;;;;;;4967118;28;20043;-62
2022/12/12 00:07:54;;;;;;;9.77;5.32;;;0.20;99.90;;;;;;4984140;28;20078;-62
2022/12/12 00:10:21;;;;;;;9.55;5.18;;;0.20;99.90;;;;;;4969287;28;20061;-61
2022/12/12 00:12:48;;;;;;;10.30;5.43;;;0.20;99.90;;;;;;4969250;28;20512;-62
2022/12/12 00:15:15;;;;;;;11.52;5.65;;;0.30;99.90;;;;;;4968757;28;20668;-62
2022/12/12 00:17:41;;;;;;;9.48;5.30;;;0.30;99.90;;;;;;4968634;28;20086;-62
2022/12/12 00:20:08;;;;;;;8.65;5.25;;;0.20;99.90;;;;;;4967722;28;20097;-62
2022/12/12 00:22:35;;;;;;;8.50;5.88;;;0.20;99.90;;;;;;4952638;28;20524;-61
2022/12/12 00:25:02;;;;;;;8.20;5.32;;;0.30;99.90;;;;;;4961826;28;20043;-61
2022/12/12 00:27:31;;;;;;;9.00;5.72;;;0.30;99.90;;;;;;4970519;28;20046;-61
2022/12/12 00:29:58;;;;;;;9.20;5.00;;;0.30;99.90;;;;;;4971434;28;20074;-61
2022/12/12 00:32:25;;;;;;;11.93;5.32;;;0.30;99.90;;;;;;4972004;28;20392;-61
2022/12/12 00:34:51;;;;;;;8.88;4.70;;;0.30;99.90;;;;;;4970952;28;20047;-60
2022/12/12 00:37:18;;;;;;;5.90;4.32;;;0.30;99.90;;;;;;4969793;28;20050;-62
2022/12/12 00:39:45;;;;;;;8.25;4.70;;;0.30;99.90;;;;;;4970608;28;20821;-61
2022/12/12 00:42:12;;;;;;;11.77;5.35;;;0.30;99.90;;;;;;4964791;28;20050;-62
2022/12/12 00:44:39;;;;;;;7.82;4.72;;;0.30;99.90;;;;;;4970742;28;20050;-61
2022/12/12 00:47:06;;;;;;;7.47;5.47;;;0.30;99.90;;;;;;4966730;28;20055;-61
2022/12/12 00:49:33;;;;;;;8.52;4.57;;;0.30;99.90;;;;;;4972338;28;20085;-61
2022/12/12 00:52:00;;;;;;;6.10;4.72;;;0.30;99.90;;;;;;4966621;28;20138;-62
2022/12/12 00:54:26;;;;;;;7.68;4.25;;;0.30;99.90;;;;;;4967425;28;20483;-62
2022/12/12 00:56:53;;;;;;;7.70;4.45;;;0.50;99.90;;;;;;4971162;28;20142;-62
2022/12/12 00:59:20;;;;;;;8.73;4.70;;;0.30;99.90;;;;;;4972295;28;20082;-62
2022/12/12 01:01:47;;;;;;;7.53;3.85;;;0.30;99.90;;;;;;4972182;28;20130;-62
2022/12/12 01:04:14;;;;;;;11.65;5.30;;;0.30;99.90;;;;;;4972463;28;20054;-62
2022/12/12 01:06:40;;;;;;;12.52;5.65;;;0.30;99.90;;;;;;4971896;28;20122;-62
2022/12/12 01:09:07;;;;;;;10.25;6.30;;;0.40;99.90;;;;;;4972334;28;20157;-62
2022/12/12 01:11:34;;;;;;;7.60;4.20;;;0.40;99.90;;;;;;4970226;28;20082;-62
2022/12/12 01:14:01;;;;;;;12.73;5.28;;;0.30;99.90;;;;;;4972004;28;20505;-62
2022/12/12 01:16:28;;;;;;;12.43;6.35;;;0.30;99.90;;;;;;4971617;28;20047;-62
2022/12/12 01:18:55;;;;;;;14.13;6.93;;;0.30;99.90;;;;;;4971935;28;20058;-61
2022/12/12 01:21:22;;;;;;;12.38;5.97;;;0.30;99.90;;;;;;4970764;28;20057;-61
2022/12/12 01:23:49;;;;;;;14.30;6.82;;;0.30;99.90;;;;;;4972129;28;20053;-61
2022/12/12 01:26:18;;;;;;;17.90;7.07;;;0.30;99.90;;;;;;4626164;28;9999801;-61
2022/12/12 01:28:45;;;;;;;12.10;6.63;;;0.40;99.90;;;;;;4959426;28;20059;-61
2022/12/12 01:31:12;;;;;;;12.07;5.35;;;0.40;99.90;;;;;;4971983;28;20071;-61
2022/12/12 01:33:39;;;;;;;10.15;5.72;;;0.40;99.90;;;;;;4970538;28;20055;-61
2022/12/12 01:36:06;;;;;;;9.80;5.90;;;0.40;99.90;;;;;;4971799;28;20047;-61
2022/12/12 01:38:33;;;;;;;11.48;5.70;;;0.40;99.90;;;;;;4970905;28;20082;-61
2022/12/12 01:41:00;;;;;;;12.55;6.57;;;0.40;99.90;;;;;;4967993;28;20532;-61
2022/12/12 01:43:27;;;;;;;11.25;5.70;;;0.50;99.90;;;;;;4970484;28;20055;-61
2022/12/12 01:45:57;;;;;;;11.70;6.57;;;0.40;99.90;;;;;;4971763;28;20089;-62
2022/12/12 01:48:51;;;;;;;8.50;5.20;;;0.40;99.90;;;;;;4971349;28;20446;-61
2022/12/12 01:51:22;;;;;;;11.75;5.53;;;0.50;99.90;;;;;;4969667;28;20071;-61
2022/12/12 01:53:51;;;;;;;12.23;6.00;;;0.40;99.90;;;;;;4969595;28;20074;-61
2022/12/12 01:56:18;;;;;;;15.02;7.00;;;0.40;99.90;;;;;;4970335;28;20399;-62
2022/12/12 01:58:46;;;;;;;12.88;7.05;;;0.40;99.90;;;;;;4971196;28;20109;-61
2022/12/12 02:01:13;;;;;;;13.40;6.88;;;0.40;99.90;;;;;;4970411;28;20098;-61
2022/12/12 02:03:40;;;;;;;17.77;7.15;;;0.40;99.90;;;;;;4970124;28;20074;-61
2022/12/12 02:06:09;;;;;;;12.88;6.85;;;0.40;99.90;;;;;;4971646;28;20090;-61
2022/12/12 02:08:36;;;;;;;10.48;6.63;;;0.40;99.90;;;;;;4971055;28;20151;-61
2022/12/12 02:11:03;;;;;;;15.77;7.32;;;0.40;99.90;;;;;;4970797;28;20042;-61
2022/12/12 02:13:30;;;;;;;13.15;6.18;;;0.40;99.90;;;;;;4971401;28;20103;-61
2022/12/12 02:16:13;;;;;;;12.93;7.47;;;0.40;99.90;;;;;;4970788;28;20050;-61
2022/12/12 02:18:49;;;;;;;17.30;7.95;;;0.30;99.90;;;;;;4969728;28;20043;-61
2022/12/12 02:21:31;;;;;;;11.07;6.38;;;0.40;99.90;;;;;;4971221;28;20051;-61
2022/12/12 02:24:10;;;;;;;14.57;7.50;;;0.40;99.90;;;;;;4967642;28;20089;-61
2022/12/12 02:27:07;;;;;;;12.25;6.97;;;0.40;99.90;;;;;;4963958;28;20143;-61
2022/12/12 02:29:48;;;;;;;11.82;6.70;;;0.30;99.90;;;;;;4966116;28;20090;-61
2022/12/12 02:32:23;;;;;;;14.63;7.65;;;0.30;99.90;;;;;;4970544;28;20069;-62
2022/12/12 02:35:29;;;;;;;15.13;8.43;;;0.30;99.90;;;;;;4969333;28;20134;-61
2022/12/12 02:38:12;;;;;;;14.65;7.72;;;0.30;99.90;;;;;;4949047;29;20074;-61
2022/12/12 02:40:57;;;;;;;14.30;6.82;;;0.30;99.90;;;;;;4967619;28;20538;-61
2022/12/12 02:44:08;;;;;;;15.70;8.10;;;0.30;99.90;;;;;;4970211;28;20134;-61
2022/12/12 02:46:40;;;;;;;11.98;7.13;;;0.30;99.90;;;;;;4919534;29;20324;-62
2022/12/12 02:49:24;;;;;;;13.48;7.03;;;0.30;99.90;;;;;;4955748;28;20046;-62
2022/12/12 02:51:51;;;;;;;15.07;8.45;;;0.30;99.90;;;;;;4969711;28;20047;-61
2022/12/12 02:54:20;;;;;;;13.75;7.95;;;0.30;99.90;;;;;;4968055;28;20099;-61
2022/12/12 02:56:57;;;;;;;14.43;8.30;;;0.30;99.90;;;;;;4960417;28;20078;-60
2022/12/12 02:59:38;;;;;;;15.90;8.00;;;0.30;99.90;;;;;;4969836;28;20039;-61
2022/12/12 03:02:15;;;;;;;15.95;6.93;;;0.30;99.90;;;;;;4960791;28;20090;-61
2022/12/12 03:08:27;;;;;;;14.10;7.65;;;0.30;99.90;;;;;;4969025;28;20130;-62
2022/12/12 03:11:03;;;;;;;13.93;7.80;;;0.30;99.90;;;;;;4969742;28;20102;-61
2022/12/12 03:13:39;;;;;;;13.25;7.00;;;0.30;99.90;;;;;;4968634;28;20133;-61
2022/12/12 03:16:28;;;;;;;13.77;7.75;;;0.40;99.90;;;;;;4968406;28;20129;-63
2022/12/12 03:19:23;;;;;;;14.95;7.22;;;0.40;99.90;;;;;;4968681;28;20055;-61
2022/12/12 03:22:00;;;;;;;;;;;0.40;99.90;;;;;;4969903;28;20074;-61
2022/12/12 03:24:35;;;;;;;15.07;7.90;;;0.40;99.90;;;;;;4969205;28;19980;-62
2022/12/12 03:27:08;;;;;;;11.95;7.10;;;0.50;99.90;;;;;;4968510;28;20518;-61
2022/12/12 03:29:39;;;;;;;13.35;7.22;;;0.50;99.90;;;;;;4968918;28;20530;-61
2022/12/12 03:32:14;;;;;;;13.07;7.45;;;0.50;99.90;;;;;;4968447;28;20387;-61
2022/12/12 03:34:50;;;;;;;12.25;7.25;;;0.60;99.90;;;;;;4968842;28;20082;-65
2022/12/12 03:37:23;;;;;;;11.20;7.05;;;0.60;99.90;;;;;;4968464;28;20085;-62
2022/12/12 03:40:01;;;;;;;14.38;7.43;;;0.60;99.90;;;;;;4953679;28;20119;-61
2022/12/12 03:42:33;;;;;;;11.88;7.45;;;0.60;99.90;;;;;;4967415;28;21513;-61
2022/12/12 03:45:17;;;;;;;14.32;8.15;;;0.60;99.90;;;;;;4968419;28;20086;-61
2022/12/12 03:47:44;;;;;;;;;;;0.70;99.90;;;;;;4969942;28;20081;-62
2022/12/12 03:50:18;;;;;;;17.17;7.90;;;0.60;99.90;;;;;;4969783;28;19922;-61
2022/12/12 03:53:25;;;;;;;17.00;8.23;;;0.60;99.90;;;;;;4967858;28;20086;-62
2022/12/12 03:55:57;;;;;;;14.95;8.20;;;0.70;99.90;;;;;;4968335;28;20054;-61
2022/12/12 03:58:46;;;;;;;15.63;8.32;;;0.70;99.90;;;;;;4968336;28;20499;-61
2022/12/12 04:01:12;;;;;;;11.77;7.30;;;0.70;99.90;;;;;;4983798;28;20077;-60
2022/12/12 04:03:59;;;;;;;17.58;9.10;;;0.70;99.90;;;;;;4968538;28;20049;-60
2022/12/12 04:06:37;;;;;;;14.55;8.00;;;0.70;99.90;;;;;;4984088;28;20078;-61
2022/12/12 04:15:10;;;;;;;16.52;8.55;;;0.70;99.90;;;;;;4973199;28;20078;-61
2022/12/12 04:17:54;;;;;;;18.38;9.23;;;0.70;99.90;;;;;;4970703;28;20049;-62
2022/12/12 04:23:49;;;;;;;21.17;9.68;;;0.70;99.90;;;;;;4953271;28;20141;-61
2022/12/12 04:29:38;;;;;;;16.65;9.73;;;0.70;99.90;;;;;;4971741;28;20086;-61
2022/12/12 04:32:07;;;;;;;16.60;8.25;;;0.70;99.90;;;;;;4971209;28;20593;-61
2022/12/12 04:34:57;;;;;;;15.43;9.18;;;0.70;99.90;;;;;;4971850;28;20043;-61
2022/12/12 04:37:29;;;;;;;20.58;10.07;;;0.70;99.90;;;;;;4971601;28;20085;-61
2022/12/12 04:39:58;;;;;;;17.65;9.45;;;0.70;99.90;;;;;;4961099;28;20042;-61
2022/12/12 04:42:27;;;;;;;19.40;10.57;;;0.70;99.90;;;;;;4971760;28;20096;-61
2022/12/12 04:44:56;;;;;;;17.13;9.00;;;0.70;99.90;;;;;;4972376;28;20132;-61
2022/12/12 04:47:23;;;;;;;17.50;10.25;;;0.70;99.90;;;;;;4971417;28;20050;-61
2022/12/12 04:49:50;;;;;;;18.48;9.60;;;0.60;99.90;;;;;;4968968;28;20130;-61
2022/12/12 04:52:17;;;;;;;20.58;10.25;;;0.70;99.90;;;;;;4970800;28;20134;-61
2022/12/12 04:54:48;;;;;;;19.92;9.57;;;0.70;99.90;;;;;;4970559;28;20055;-61
2022/12/12 04:57:22;;;;;;;21.08;10.35;;;0.70;99.90;;;;;;4971828;28;20043;-61
2022/12/12 04:59:49;;;;;;;17.58;9.35;;;0.70;99.90;;;;;;4970458;28;20050;-61
2022/12/12 05:02:22;;;;;;;16.73;9.73;;;0.70;99.90;;;;;;4972141;28;20106;-61
2022/12/12 05:04:54;;;;;;;17.65;9.00;;;0.70;99.90;;;;;;4971726;28;20051;-61
2022/12/12 05:07:32;;;;;;;17.45;9.75;;;0.70;99.90;;;;;;4952749;28;20101;-62
2022/12/12 05:10:15;;;;;;;17.25;9.07;;;0.70;99.90;;;;;;4978427;28;20143;-62
2022/12/12 05:12:47;;;;;;;19.02;10.30;;;0.80;99.90;;;;;;4969380;28;20051;-61
2022/12/12 05:15:14;;;;;;;21.92;10.85;;;0.70;99.90;;;;;;4970782;28;20050;-60
2022/12/12 05:17:46;;;;;;;18.45;9.98;;;0.70;99.90;;;;;;4970245;28;20577;-62
2022/12/12 05:20:13;;;;;;;18.33;9.18;;;0.70;99.90;;;;;;4958670;28;20059;-62
2022/12/12 05:22:40;;;;;;;19.75;9.95;;;0.80;99.90;;;;;;4971107;28;20051;-63
2022/12/12 05:25:07;;;;;;;20.33;10.52;;;0.70;99.90;;;;;;4971973;28;20117;-62
2022/12/12 05:27:34;;;;;;;15.25;9.23;;;0.70;99.90;;;;;;4970513;28;20089;-62
2022/12/12 05:30:01;;;;;;;19.70;11.48;;;1.10;99.90;;;;;;4969517;28;20078;-62
2022/12/12 05:32:28;;;;;;;21.50;10.93;;;0.80;99.90;;;;;;4971398;28;20054;-63
2022/12/12 05:34:54;;;;;;;16.48;9.32;;;0.90;99.90;;;;;;4971742;28;20054;-63
2022/12/12 05:37:21;;;;;;;16.73;10.00;;;0.80;99.90;;;;;;4971821;28;20053;-63
2022/12/12 05:39:48;;;;;;;17.58;9.77;;;0.80;99.90;;;;;;4955585;28;20475;-63
2022/12/12 05:42:14;;;;;;;15.63;10.32;;;0.80;99.90;;;;;;4971551;28;20090;-62
2022/12/12 05:44:41;;;;;;;18.52;10.20;;;0.90;99.90;;;;;;4971364;28;20130;-63
2022/12/12 05:47:08;;;;;;;15.45;9.52;;;0.90;99.90;;;;;;4971128;28;20054;-61
2022/12/12 05:49:35;;;;;;;17.30;10.23;;;0.80;99.90;;;;;;4953707;28;20130;-61
2022/12/12 05:52:02;;;;;;;18.65;9.73;;;0.90;99.90;;;;;;4971014;28;20134;-63
2022/12/12 05:54:29;;;;;;;16.58;9.52;;;0.80;99.90;;;;;;4971150;28;20141;-62
2022/12/12 05:56:56;;;;;;;24.85;11.00;;;0.80;99.90;;;;;;4969271;28;20266;-62
2022/12/12 05:59:23;;;;;;;18.58;9.50;;;0.80;99.90;;;;;;4950682;29;20051;-62
2022/12/12 06:01:49;;;;;;;17.55;10.05;;;0.80;99.90;;;;;;4967954;28;20074;-62
2022/12/12 06:04:16;;;;;;;23.58;10.90;;;0.80;99.90;;;;;;4971065;28;20086;-62
2022/12/12 06:06:43;;;;;;;19.33;10.50;;;0.80;99.90;;;;;;4970993;28;20043;-61
2022/12/12 06:09:10;;;;;;;20.90;11.02;;;0.80;99.90;;;;;;4971116;28;20051;-61
2022/12/12 06:11:36;;;;;;;21.23;11.90;;;0.80;99.90;;;;;;4970626;28;20174;-62
2022/12/12 06:14:03;;;;;;;22.63;11.65;;;0.80;99.90;;;;;;4970849;28;20533;-61
2022/12/12 06:16:30;;;;;;;17.55;10.85;;;0.80;99.90;;;;;;4970681;28;20821;-62
2022/12/12 06:18:57;;;;;;;20.50;11.20;;;0.80;99.90;;;;;;4970399;28;20133;-62
2022/12/12 06:21:24;;;;;;;20.02;11.48;;;0.80;99.90;;;;;;4970534;28;20082;-62
2022/12/12 06:23:50;;;;;;;21.15;12.27;;;0.90;99.90;;;;;;4960013;28;20662;-62
2022/12/12 06:26:17;;;;;;;23.42;11.70;;;0.90;99.90;;;;;;4957954;28;20074;-62
2022/12/12 06:28:44;;;;;;;21.23;11.13;;;0.90;99.90;;;;;;4970813;28;20646;-62
2022/12/12 06:31:11;;;;;;;25.30;12.50;;;0.80;99.90;;;;;;4969374;28;20115;-63
2022/12/12 06:33:39;;;;;;;31.60;16.02;;;0.90;99.90;;;;;;4984190;28;20533;-62
2022/12/12 06:36:11;;;;;;;27.30;13.95;;;0.90;99.90;;;;;;4955962;28;20066;-63
2022/12/12 06:38:38;;;;;;;25.42;13.38;;;0.90;99.90;;;;;;4966036;28;20047;-62
2022/12/12 06:41:06;;;;;;;22.75;13.90;;;1.10;99.90;;;;;;4950111;29;20047;-63
2022/12/12 06:43:33;;;;;;;24.60;12.90;;;0.90;99.90;;;;;;4964758;28;20101;-62
2022/12/12 06:46:04;;;;;;;23.65;11.52;;;0.90;99.90;;;;;;4970448;28;20055;-61
2022/12/12 06:48:31;;;;;;;26.17;12.48;;;0.90;99.90;;;;;;4964851;28;20046;-62
2022/12/12 06:50:58;;;;;;;24.40;12.13;;;1.00;99.90;;;;;;4968866;28;20078;-61
2022/12/12 06:53:25;;;;;;;27.23;13.93;;;0.90;99.90;;;;;;4969334;28;20057;-62
2022/12/12 06:55:51;;;;;;;20.05;10.93;;;1.00;99.90;;;;;;4953386;28;20066;-62
2022/12/12 06:58:18;;;;;;;21.48;11.50;;;0.90;99.90;;;;;;4963909;28;20162;-65
2022/12/12 07:00:50;;;;;;;20.55;11.63;;;0.90;99.90;;;;;;4969607;28;20078;-62
2022/12/12 07:03:17;;;;;;;22.60;11.85;;;0.90;99.90;;;;;;4967887;28;20673;-63
2022/12/12 07:05:47;;;;;;;20.67;11.80;;;0.90;99.90;;;;;;4624331;28;9999850;-63
2022/12/12 07:08:14;;;;;;;17.85;10.57;;;0.80;99.90;;;;;;4967064;28;20289;-62
2022/12/12 07:10:41;;;;;;;16.77;8.68;;;0.80;99.90;;;;;;4967490;28;20047;-61
2022/12/12 07:13:08;;;;;;;19.42;10.05;;;0.80;99.90;;;;;;4963738;28;20125;-61
2022/12/12 07:15:43;;;;;;;21.45;10.50;;;0.80;99.90;;;;;;4965112;28;20597;-66
2022/12/12 07:18:10;;;;;;;21.58;10.88;;;1.10;99.90;;;;;;4964030;28;20061;-62
2022/12/12 07:20:41;;;;;;;19.88;10.23;;;0.70;99.90;;;;;;4966710;28;20137;-62
2022/12/12 07:23:08;;;;;;;19.40;10.85;;;0.90;99.90;;;;;;4966366;28;20090;-62
2022/12/12 07:25:39;;;;;;;17.73;9.15;;;0.90;99.90;;;;;;4966891;28;20054;-62
2022/12/12 07:28:06;;;;;;;16.10;9.23;;;0.90;99.90;;;;;;4966605;28;20675;-62
2022/12/12 07:30:33;;;;;;;16.42;9.75;;;0.90;99.90;;;;;;4966844;28;20082;-62
2022/12/12 07:33:00;;;;;;;15.98;9.48;;;0.90;99.90;;;;;;4966211;28;20129;-62
2022/12/12 07:35:27;;;;;;;18.02;9.80;;;0.90;99.90;;;;;;4966390;28;20134;-63
2022/12/12 07:37:55;;;;;;;16.92;9.65;;;0.90;99.90;;;;;;4965610;28;20097;-62
2022/12/12 07:40:22;;;;;;;15.27;8.18;;;0.90;99.90;;;;;;4966331;28;20051;-62
2022/12/12 07:42:49;;;;;;;17.35;8.18;;;0.90;99.90;;;;;;4966580;28;20089;-62
2022/12/12 07:45:16;;;;;;;16.55;8.18;;;1.00;99.90;;;;;;4966379;28;20117;-63
2022/12/12 07:47:44;;;;;;;15.02;8.10;;;0.90;99.90;;;;;;4957695;28;20051;-62
2022/12/12 07:50:11;;;;;;;16.70;8.95;;;1.00;99.90;;;;;;4961533;28;20078;-60
2022/12/12 07:52:38;;;;;;;16.35;8.63;;;1.00;99.90;;;;;;4964554;28;20097;-68
2022/12/12 07:55:05;;;;;;;14.52;8.63;;;1.00;99.90;;;;;;4966095;28;20154;-62
2022/12/12 07:57:32;;;;;;;16.50;8.38;;;0.90;99.90;;;;;;4978220;28;20133;-61
2022/12/12 07:59:59;;;;;;;15.80;8.90;;;1.00;99.90;;;;;;4964583;28;20058;-62
2022/12/12 08:02:26;;;;;;;16.27;9.40;;;1.10;99.90;;;;;;4966012;28;20051;-60
2022/12/12 08:04:52;;;;;;;17.17;8.25;;;0.90;99.90;;;;;;4964309;28;20074;-60
2022/12/12 08:07:19;;;;;;;14.93;7.78;;;0.90;99.90;;;;;;4966275;28;20047;-63
2022/12/12 08:09:46;;;;;;;14.13;8.80;;;0.90;99.90;;;;;;4966372;28;20129;-61
2022/12/12 08:12:13;;;;;;;15.23;6.78;;;0.90;99.90;;;;;;4966202;28;20533;-61
2022/12/12 08:14:40;;;;;;;18.90;8.65;;;0.90;99.90;;;;;;4965545;28;20066;-62
2022/12/12 08:17:06;;;;;;;14.68;8.18;;;0.90;99.90;;;;;;4962252;28;20082;-61
2022/12/12 08:19:33;;;;;;;16.17;8.23;;;1.00;99.90;;;;;;4947867;28;20514;-62
2022/12/12 08:22:00;;;;;;;13.65;7.20;;;0.90;99.90;;;;;;4966161;28;20082;-63
2022/12/12 08:24:28;;;;;;;13.73;7.05;;;1.00;99.90;;;;;;4966100;28;20078;-62
2022/12/12 08:26:55;;;;;;;16.60;7.43;;;0.90;99.90;;;;;;4965667;28;20051;-61
2022/12/12 08:29:22;;;;;;;14.32;8.60;;;0.90;99.90;;;;;;4966353;28;20133;-61
2022/12/12 08:31:49;;;;;;;13.77;7.35;;;0.90;99.90;;;;;;4965574;28;20082;-61
2022/12/12 08:34:15;;;;;;;13.63;7.47;;;0.90;99.90;;;;;;4965949;28;20133;-61
2022/12/12 08:36:42;;;;;;;15.45;7.53;;;0.90;99.90;;;;;;4965978;28;20133;-60
2022/12/12 08:39:11;;;;;;;14.48;7.53;;;0.90;99.90;;;;;;4966279;28;20090;-60
2022/12/12 08:41:39;;;;;;;13.18;7.63;;;0.90;99.90;;;;;;4965779;28;20050;-61
2022/12/12 08:44:07;;;;;;;13.32;6.20;;;1.00;99.90;;;;;;4966267;28;20137;-62
2022/12/12 08:46:34;;;;;;;13.35;7.78;;;0.90;99.90;;;;;;4961030;28;20074;-61
2022/12/12 08:49:01;;;;;;;15.80;7.82;;;0.90;99.90;;;;;;4966765;28;20098;-62
2022/12/12 08:51:28;;;;;;;9.65;6.30;;;0.90;99.90;;;;;;4969083;28;20710;-61
2022/12/12 08:53:55;;;;;;;11.70;6.32;;;1.00;99.90;;;;;;4969471;28;20055;-61
2022/12/12 08:56:22;;;;;;;11.73;6.60;;;0.90;99.90;;;;;;4961561;28;20129;-60
2022/12/12 08:58:49;;;;;;;14.55;7.45;;;0.90;99.90;;;;;;4969227;28;20077;-61
2022/12/12 09:01:18;;;;;;;10.10;5.45;;;0.80;99.90;;;;;;4968041;28;20502;-61
2022/12/12 09:03:45;;;;;;;13.43;7.97;;;0.80;99.90;;;;;;4968499;28;20089;-61
2022/12/12 09:06:13;;;;;;;13.25;7.63;;;0.90;99.90;;;;;;4967136;28;20113;-62
2022/12/12 09:08:40;;;;;;;10.98;7.03;;;0.90;99.90;;;;;;4968890;28;20054;-60
2022/12/12 09:11:06;;;;;;;11.02;6.05;;;0.90;99.90;;;;;;4968993;28;20089;-60
2022/12/12 09:13:33;;;;;;;10.20;5.93;;;0.80;99.90;;;;;;4968372;28;20111;-61
2022/12/12 09:16:01;;;;;;;13.32;6.82;;;0.80;99.90;;;;;;4967718;28;20058;-59
2022/12/12 09:18:28;;;;;;;11.05;6.20;;;0.90;99.90;;;;;;4964854;28;20141;-59
2022/12/12 09:20:56;;;;;;;9.95;5.80;;;0.90;99.90;;;;;;4968862;28;20113;-60
2022/12/12 09:23:23;;;;;;;11.25;6.40;;;0.90;99.90;;;;;;4951629;28;20054;-60
2022/12/12 09:25:55;;;;;;;15.50;6.55;;;0.80;99.90;;;;;;4968393;28;20113;-59
2022/12/12 09:28:23;;;;;;;12.80;6.55;;;0.80;99.90;;;;;;4967365;28;20125;-60
2022/12/12 09:30:50;;;;;;;9.65;5.60;;;0.90;99.90;;;;;;4968498;28;20046;-60
2022/12/12 09:33:17;;;;;;;11.95;5.70;;;0.80;99.90;;;;;;4968487;28;20069;-60
2022/12/12 09:35:44;;;;;;;10.75;6.60;;;0.90;99.90;;;;;;4968890;28;20086;-61
2022/12/12 09:38:11;;;;;;;13.35;6.28;;;0.90;99.90;;;;;;4968453;28;20097;-60
2022/12/12 09:40:55;;;;;;;9.82;5.75;;;1.00;99.90;;;;;;4968978;28;20162;-62
2022/12/12 09:43:25;;;;;;;8.20;5.70;;;1.00;99.90;;;;;;4967698;28;20043;-61
2022/12/12 09:45:55;;;;;;;12.20;6.23;;;0.90;99.90;;;;;;4963464;28;20070;-61
2022/12/12 09:48:29;;;;;;;11.50;7.00;;;1.00;99.90;;;;;;4966079;28;20306;-60
2022/12/12 09:50:56;;;;;;;15.52;6.38;;;1.00;99.90;;;;;;4964198;28;20071;-60
2022/12/12 09:53:23;;;;;;;11.55;6.70;;;1.10;99.90;;;;;;4966948;28;20498;-60
2022/12/12 09:56:09;;;;;;;11.25;6.63;;;1.10;99.90;;;;;;4966181;28;20121;-59
2022/12/12 09:59:05;;;;;;;10.85;6.15;;;1.00;99.90;;;;;;4966933;28;20054;-60
2022/12/12 10:01:57;;;;;;;12.27;6.43;;;1.00;99.90;;;;;;4965558;28;20621;-61
2022/12/12 10:05:00;;;;;;;11.00;6.63;;;0.90;99.90;;;;;;4964821;28;20695;-59
2022/12/12 10:07:54;;;;;;;16.67;6.57;;;1.00;99.90;;;;;;4932593;28;20106;-61
2022/12/12 10:10:54;;;;;;;10.30;6.45;;;1.10;99.90;;;;;;4977402;28;20051;-61
2022/12/12 10:13:24;;;;;;;11.32;5.95;;;1.10;99.90;;;;;;4939025;28;20066;-60
2022/12/12 10:16:01;;;;;;;11.23;6.65;;;1.20;99.90;;;;;;4965673;28;20138;-60
2022/12/12 10:18:34;;;;;;;10.50;6.15;;;1.00;99.90;;;;;;4964821;28;20061;-60
2022/12/12 10:21:03;;;;;;;9.32;5.57;;;1.00;99.90;;;;;;4967881;28;20239;-60
2022/12/12 10:23:45;;;;;;;11.20;6.50;;;1.00;99.90;;;;;;4966690;28;20145;-60
2022/12/12 10:26:22;;;;;;;10.25;5.88;;;0.90;99.90;;;;;;4967487;28;20129;-60
2022/12/12 10:28:52;;;;;;;9.95;6.25;;;1.00;99.90;;;;;;4967402;28;20086;-60
2022/12/12 10:31:54;;;;;;;12.48;6.20;;;0.90;99.90;;;;;;4966079;28;20090;-59
2022/12/12 10:34:26;;;;;;;10.45;5.75;;;0.90;99.90;;;;;;4944649;28;20078;-59
2022/12/12 10:37:16;;;;;;;10.38;5.85;;;0.90;99.90;;;;;;4958065;28;20039;-59
2022/12/12 10:39:51;;;;;;;9.63;5.80;;;0.90;99.90;;;;;;4960606;28;20050;-59
2022/12/12 10:42:35;;;;;;;9.73;6.13;;;1.00;99.90;;;;;;4966262;28;20090;-60
2022/12/12 10:45:10;;;;;;;15.45;7.00;;;1.00;99.90;;;;;;4961958;28;20097;-59
2022/12/12 10:47:37;;;;;;;7.75;5.10;;;1.10;99.90;;;;;;4958501;28;20576;-59
2022/12/12 10:50:23;;;;;;;9.63;6.38;;;1.10;99.90;;;;;;4956279;28;20054;-60
2022/12/12 10:52:50;;;;;;;10.40;6.35;;;1.20;99.90;;;;;;4950743;28;20506;-60
2022/12/12 10:55:38;;;;;;;10.88;6.35;;;1.30;99.90;;;;;;4973591;28;20105;-61
2022/12/12 10:58:05;;;;;;;11.90;5.70;;;1.30;99.90;;;;;;4934265;28;20115;-60
2022/12/12 11:00:37;;;;;;;9.57;6.72;;;1.30;99.90;;;;;;4954739;28;20133;-58
2022/12/12 11:03:26;;;;;;;10.02;6.60;;;1.20;99.90;;;;;;4958730;28;20114;-59
2022/12/12 11:05:54;;;;;;;13.57;8.30;;;1.20;99.90;;;;;;4956143;28;20134;-60
2022/12/12 11:08:28;;;;;;;14.95;7.93;;;1.20;99.90;;;;;;4955212;28;20520;-60
2022/12/12 11:11:18;;;;;;;13.20;7.90;;;1.20;99.90;;;;;;4956670;28;20101;-58
2022/12/12 11:13:56;;;;;;;15.55;8.27;;;1.30;99.90;;;;;;4959934;28;20050;-58
2022/12/12 11:16:24;;;;;;;14.63;7.97;;;1.40;99.90;;;;;;4959420;28;20108;-61
2022/12/12 11:19:00;;;;;;;14.25;8.07;;;1.40;99.90;;;;;;4955543;28;20051;-60
2022/12/12 11:21:27;;;;;;;13.93;8.48;;;1.40;99.90;;;;;;4958705;28;20245;-60
2022/12/12 11:23:55;;;;;;;14.93;8.15;;;1.40;99.90;;;;;;4955752;28;20167;-61
2022/12/12 11:26:22;;;;;;;12.77;8.57;;;1.40;99.90;;;;;;4954477;28;20478;-58
2022/12/12 11:28:59;;;;;;;14.23;8.30;;;1.30;99.90;;;;;;4952530;28;20616;-59
2022/12/12 11:31:28;;;;;;;13.18;8.30;;;1.30;99.90;;;;;;4957555;28;20054;-60
2022/12/12 11:33:57;;;;;;;16.02;8.75;;;1.40;99.90;;;;;;4956913;28;20089;-59
2022/12/12 11:36:37;;;;;;;15.05;8.85;;;1.40;99.90;;;;;;4955035;28;20137;-58
2022/12/12 11:39:24;;;;;;;15.68;9.65;;;1.40;99.90;;;;;;4955360;28;20051;-59
2022/12/12 11:42:15;;;;;;;21.02;10.25;;;1.40;99.90;;;;;;4956067;28;20085;-58
2022/12/12 11:44:44;;;;;;;14.00;9.13;;;1.40;99.90;;;;;;4954997;28;20052;-60
2022/12/12 11:47:17;;;;;;;15.93;10.20;;;1.50;99.90;;;;;;4954397;28;20082;-60
2022/12/12 11:49:45;;;;;;;13.25;8.98;;;1.40;99.90;;;;;;4957577;28;20078;-60
2022/12/12 11:52:24;;;;;;;12.32;7.80;;;1.50;99.90;;;;;;4957072;28;20462;-60
2022/12/12 11:54:52;;;;;;;14.15;8.82;;;1.50;99.90;;;;;;4962124;28;20572;-60
2022/12/12 11:57:29;;;;;;;14.75;8.88;;;1.50;99.90;;;;;;4949639;28;20085;-59
2022/12/12 12:00:08;;;;;;;16.58;9.25;;;1.50;99.90;;;;;;4963776;28;20055;-61
2022/12/12 12:02:53;;;;;;;14.15;8.88;;;1.60;99.90;;;;;;4964150;28;20563;-59
2022/12/12 12:05:26;;;;;;;17.80;10.27;;;1.60;99.90;;;;;;4957625;28;20070;-59
2022/12/12 12:08:15;;;;;;;14.43;8.52;;;1.60;99.90;;;;;;4965198;28;20131;-60
2022/12/12 12:10:57;;;;;;;15.82;9.95;;;1.60;99.90;;;;;;4954275;28;20498;-62
2022/12/12 12:13:35;;;;;;;19.45;9.70;;;1.60;99.90;;;;;;4959500;28;20051;-59
2022/12/12 12:16:14;;;;;;;17.65;9.43;;;1.70;99.90;;;;;;4963117;28;20203;-60
2022/12/12 12:19:02;;;;;;;18.50;9.30;;;1.70;99.90;;;;;;4957633;28;20051;-61
2022/12/12 12:21:42;;;;;;;16.45;10.05;;;1.60;99.90;;;;;;4956351;28;20059;-59
2022/12/12 12:24:33;;;;;;;22.50;10.15;;;1.60;99.90;;;;;;4964551;28;20117;-61
2022/12/12 12:27:21;;;;;;;17.83;10.15;;;1.60;99.90;;;;;;4965329;28;20051;-59
2022/12/12 12:30:07;;;;;;;20.40;10.40;;;1.60;99.90;;;;;;4957752;28;20106;-60
2022/12/12 12:32:59;;;;;;;19.50;10.93;;;1.70;99.90;;;;;;4965036;28;20082;-63
2022/12/12 12:36:01;;;;;;;20.38;10.50;;;1.70;99.90;;;;;;4969062;28;20422;-58
2022/12/12 12:38:54;;;;;;;17.85;10.18;;;1.70;99.90;;;;;;4953227;28;20075;-61
2022/12/12 12:41:52;;;;;;;19.63;11.13;;;1.80;99.90;;;;;;4957414;28;20162;-60
2022/12/12 12:44:21;;;;;;;25.80;11.20;;;1.80;99.90;;;;;;4963353;28;20699;-61
2022/12/12 12:46:51;;;;;;;18.02;11.43;;;1.80;99.90;;;;;;4963981;28;20055;-59
2022/12/12 12:49:38;;;;;;;21.55;12.55;;;1.80;99.90;;;;;;4960110;28;20486;-60
2022/12/12 12:52:11;;;;;;;20.05;11.23;;;1.80;99.90;;;;;;4961130;28;20078;-60
2022/12/12 12:54:39;;;;;;;23.67;12.35;;;1.70;99.90;;;;;;4962914;28;20203;-59
2022/12/12 12:57:09;;;;;;;19.38;9.90;;;1.80;99.90;;;;;;4967825;28;20059;-59
2022/12/12 12:59:40;;;;;;;17.42;10.38;;;1.80;99.90;;;;;;4966728;28;20090;-59
2022/12/12 13:02:15;;;;;;;16.17;10.05;;;1.80;99.90;;;;;;4960120;28;20054;-60
2022/12/12 13:05:12;;;;;;;18.58;10.65;;;1.80;99.90;;;;;;4963292;28;20517;-59
2022/12/12 13:07:47;;;;;;;16.92;10.60;;;1.80;99.90;;;;;;4950370;28;20066;-61
2022/12/12 13:10:28;;;;;;;17.02;9.63;;;1.70;99.90;;;;;;4955637;28;20055;-61
2022/12/12 13:13:05;;;;;;;18.27;10.65;;;1.60;99.90;;;;;;4957968;28;20051;-61
2022/12/12 13:15:40;;;;;;;15.85;9.13;;;1.50;99.90;;;;;;4960217;28;20524;-61
2022/12/12 13:18:14;;;;;;;16.25;9.68;;;1.50;99.90;;;;;;4958421;28;20051;-61
2022/12/12 13:20:43;;;;;;;19.92;10.35;;;1.70;99.90;;;;;;4972521;28;20082;-62
2022/12/12 13:23:12;;;;;;;14.70;9.07;;;1.70;99.90;;;;;;4964887;28;20404;-60
2022/12/12 13:25:48;;;;;;;15.40;7.68;;;1.70;99.90;;;;;;4967078;28;20498;-59
2022/12/12 13:28:19;;;;;;;18.40;10.18;;;1.70;99.90;;;;;;4967531;28;20051;-59